sensor_id;sensor_type;location;lat;lon;timestamp;pressure;altitude;pressure_sealevel;temperature;humidity
76627;BME280;65519;53.230;10.390;2023-06-14T00:01:16;101455.38;;;17.64;53.49
76627;BME280;65519;53.230;10.390;2023-06-14T00:03:42;101465.63;;;17.59;53.77
76627;BME280;65519;53.230;10.390;2023-06-14T00:06:07;101466.06;;;17.47;54.31
76627;BME280;65519;53.230;10.390;2023-06-14T00:08:33;101464.81;;;17.39;54.22
76627;BME280;65519;53.230;10.390;2023-06-14T00:10:58;101462.63;;;17.55;54.17
76627;BME280;65519;53.230;10.390;2023-06-14T00:13:25;101465.44;;;17.31;54.65
76627;BME280;65519;53.230;10.390;2023-06-14T00:15:50;101465.44;;;17.31;54.96
76627;BME280;65519;53.230;10.390;2023-06-14T00:18:20;101465.28;;;17.23;54.71
76627;BME280;65519;53.230;10.390;2023-06-14T00:20:50;101466.50;;;17.11;55.30
76627;BME280;65519;53.230;10.390;2023-06-14T00:23:16;101475.59;;;17.12;55.62
76627;BME280;65519;53.230;10.390;2023-06-14T00:25:41;101481.66;;;17.14;55.45
76627;BME280;65519;53.230;10.390;2023-06-14T00:28:07;101480.13;;;17.03;55.54
76627;BME280;65519;53.230;10.390;2023-06-14T00:30:34;101482.88;;;17.03;55.88
76627;BME280;65519;53.230;10.390;2023-06-14T00:33:01;101491.13;;;17.03;55.65
76627;BME280;65519;53.230;10.390;2023-06-14T00:35:27;101490.06;;;16.99;56.05
76627;BME280;65519;53.230;10.390;2023-06-14T00:37:52;101488.16;;;16.75;56.91
76627;BME280;65519;53.230;10.390;2023-06-14T00:40:20;101489.06;;;16.61;57.54
76627;BME280;65519;53.230;10.390;2023-06-14T00:42:46;101485.19;;;16.67;57.48
76627;BME280;65519;53.230;10.390;2023-06-14T00:45:11;101486.16;;;16.47;58.08
76627;BME280;65519;53.230;10.390;2023-06-14T00:47:37;101486.69;;;16.49;57.91
76627;BME280;65519;53.230;10.390;2023-06-14T00:50:06;101486.50;;;16.40;58.41
76627;BME280;65519;53.230;10.390;2023-06-14T00:52:32;101492.22;;;16.49;58.18
76627;BME280;65519;53.230;10.390;2023-06-14T00:54:58;101492.69;;;16.56;58.17
76627;BME280;65519;53.230;10.390;2023-06-14T00:57:23;101495.34;;;16.37;58.43
76627;BME280;65519;53.230;10.390;2023-06-14T00:59:49;101496.16;;;16.38;58.17
76627;BME280;65519;53.230;10.390;2023-06-14T01:02:15;101502.78;;;16.37;58.55
76627;BME280;65519;53.230;10.390;2023-06-14T01:04:45;101491.66;;;16.13;59.05
76627;BME280;65519;53.230;10.390;2023-06-14T01:12:39;101505.56;;;16.32;59.01
76627;BME280;65519;53.230;10.390;2023-06-14T01:15:06;101498.50;;;16.21;59.41
76627;BME280;65519;53.230;10.390;2023-06-14T01:17:33;101503.28;;;16.05;59.67
76627;BME280;65519;53.230;10.390;2023-06-14T01:20:01;101502.03;;;15.87;60.18
76627;BME280;65519;53.230;10.390;2023-06-14T01:22:28;101502.22;;;16.01;60.03
76627;BME280;65519;53.230;10.390;2023-06-14T01:24:54;101496.22;;;15.94;60.32
76627;BME280;65519;53.230;10.390;2023-06-14T01:27:23;101506.31;;;16.03;59.91
76627;BME280;65519;53.230;10.390;2023-06-14T01:29:51;101502.53;;;15.94;60.09
76627;BME280;65519;53.230;10.390;2023-06-14T01:32:23;101506.47;;;15.83;60.59
76627;BME280;65519;53.230;10.390;2023-06-14T01:34:50;101510.63;;;15.76;60.75
76627;BME280;65519;53.230;10.390;2023-06-14T01:37:16;101511.41;;;15.86;60.66
76627;BME280;65519;53.230;10.390;2023-06-14T01:39:43;101499.88;;;15.79;60.85
76627;BME280;65519;53.230;10.390;2023-06-14T01:42:11;101499.03;;;15.84;60.85
76627;BME280;65519;53.230;10.390;2023-06-14T01:44:42;101507.47;;;15.97;59.97
76627;BME280;65519;53.230;10.390;2023-06-14T01:47:08;101503.09;;;15.96;60.43
76627;BME280;65519;53.230;10.390;2023-06-14T01:49:34;101505.13;;;15.76;61.26
76627;BME280;65519;53.230;10.390;2023-06-14T01:52:00;101506.25;;;15.75;61.68
76627;BME280;65519;53.230;10.390;2023-06-14T01:54:26;101503.06;;;15.57;62.17
76627;BME280;65519;53.230;10.390;2023-06-14T01:56:52;101509.00;;;15.75;61.66
76627;BME280;65519;53.230;10.390;2023-06-14T01:59:18;101491.66;;;15.74;61.56
76627;BME280;65519;53.230;10.390;2023-06-14T02:01:44;101507.59;;;15.77;61.41
76627;BME280;65519;53.230;10.390;2023-06-14T02:04:11;101498.84;;;15.70;61.58
76627;BME280;65519;53.230;10.390;2023-06-14T02:06:37;101491.75;;;15.59;62.19
76627;BME280;65519;53.230;10.390;2023-06-14T02:09:03;101499.97;;;15.64;62.06
76627;BME280;65519;53.230;10.390;2023-06-14T02:11:29;101500.56;;;15.56;62.29
76627;BME280;65519;53.230;10.390;2023-06-14T02:13:55;101500.00;;;15.49;62.67
76627;BME280;65519;53.230;10.390;2023-06-14T02:16:21;101511.28;;;15.52;62.51
76627;BME280;65519;53.230;10.390;2023-06-14T02:18:47;101502.19;;;15.52;62.85
76627;BME280;65519;53.230;10.390;2023-06-14T02:21:14;101506.91;;;15.46;63.14
76627;BME280;65519;53.230;10.390;2023-06-14T02:23:39;101500.56;;;15.51;62.74
76627;BME280;65519;53.230;10.390;2023-06-14T02:26:05;101507.66;;;15.67;61.91
76627;BME280;65519;53.230;10.390;2023-06-14T02:28:33;101505.50;;;15.59;62.41
76627;BME280;65519;53.230;10.390;2023-06-14T02:31:00;101506.06;;;15.56;62.76
76627;BME280;65519;53.230;10.390;2023-06-14T02:33:26;101505.00;;;15.42;63.40
76627;BME280;65519;53.230;10.390;2023-06-14T02:35:52;101506.09;;;15.41;63.57
76627;BME280;65519;53.230;10.390;2023-06-14T02:38:18;101507.72;;;15.47;63.98
76627;BME280;65519;53.230;10.390;2023-06-14T02:40:44;101511.91;;;15.34;63.57
76627;BME280;65519;53.230;10.390;2023-06-14T02:43:09;101510.81;;;15.30;63.64
76627;BME280;65519;53.230;10.390;2023-06-14T02:45:35;101516.94;;;15.12;64.62
76627;BME280;65519;53.230;10.390;2023-06-14T02:48:00;101516.06;;;15.21;64.49
76627;BME280;65519;53.230;10.390;2023-06-14T02:50:26;101518.28;;;15.14;64.61
76627;BME280;65519;53.230;10.390;2023-06-14T02:52:53;101518.84;;;15.11;64.46
76627;BME280;65519;53.230;10.390;2023-06-14T02:55:21;101509.00;;;15.00;65.17
76627;BME280;65519;53.230;10.390;2023-06-14T02:57:47;101513.94;;;15.03;64.89
76627;BME280;65519;53.230;10.390;2023-06-14T03:00:13;101514.69;;;15.24;64.58
76627;BME280;65519;53.230;10.390;2023-06-14T03:02:41;101514.16;;;15.17;64.98
76627;BME280;65519;53.230;10.390;2023-06-14T03:05:08;101518.84;;;15.11;64.82
76627;BME280;65519;53.230;10.390;2023-06-14T03:07:35;101526.22;;;15.21;64.53
76627;BME280;65519;53.230;10.390;2023-06-14T03:10:03;101529.50;;;15.28;64.52
76627;BME280;65519;53.230;10.390;2023-06-14T03:12:29;101534.69;;;15.40;64.09
76627;BME280;65519;53.230;10.390;2023-06-14T03:14:55;101539.09;;;15.36;64.46
76627;BME280;65519;53.230;10.390;2023-06-14T03:17:22;101541.28;;;15.44;64.27
76627;BME280;65519;53.230;10.390;2023-06-14T03:19:49;101536.91;;;15.32;64.89
76627;BME280;65519;53.230;10.390;2023-06-14T03:22:15;101538.53;;;15.39;63.96
76627;BME280;65519;53.230;10.390;2023-06-14T03:24:42;101541.31;;;15.28;64.60
76627;BME280;65519;53.230;10.390;2023-06-14T03:27:13;101539.66;;;15.32;64.75
76627;BME280;65519;53.230;10.390;2023-06-14T03:29:42;101544.91;;;15.24;65.27
76627;BME280;65519;53.230;10.390;2023-06-14T03:32:08;101543.81;;;15.20;65.87
76627;BME280;65519;53.230;10.390;2023-06-14T03:34:36;101541.88;;;15.20;65.58
76627;BME280;65519;53.230;10.390;2023-06-14T03:37:05;101557.78;;;15.33;65.42
76627;BME280;65519;53.230;10.390;2023-06-14T03:39:31;101556.09;;;15.43;64.88
76627;BME280;65519;53.230;10.390;2023-06-14T03:41:56;101559.47;;;15.24;65.50
76627;BME280;65519;53.230;10.390;2023-06-14T03:44:22;101564.09;;;15.34;65.24
76627;BME280;65519;53.230;10.390;2023-06-14T03:46:48;101569.88;;;15.32;65.44
76627;BME280;65519;53.230;10.390;2023-06-14T03:49:14;101575.91;;;15.34;66.10
76627;BME280;65519;53.230;10.390;2023-06-14T03:51:43;101572.91;;;15.31;65.69
76627;BME280;65519;53.230;10.390;2023-06-14T03:54:08;101569.59;;;15.34;65.81
76627;BME280;65519;53.230;10.390;2023-06-14T03:56:35;101574.53;;;15.27;66.20
76627;BME280;65519;53.230;10.390;2023-06-14T03:59:01;101571.75;;;15.42;65.69
76627;BME280;65519;53.230;10.390;2023-06-14T04:01:28;101581.09;;;15.46;64.99
76627;BME280;65519;53.230;10.390;2023-06-14T04:03:58;101577.56;;;15.36;66.19
76627;BME280;65519;53.230;10.390;2023-06-14T04:06:24;101579.97;;;15.47;65.72
76627;BME280;65519;53.230;10.390;2023-06-14T04:08:58;101583.03;;;15.56;64.94
76627;BME280;65519;53.230;10.390;2023-06-14T04:11:27;101586.88;;;15.55;65.34
76627;BME280;65519;53.230;10.390;2023-06-14T04:13:52;101581.63;;;15.48;65.60
76627;BME280;65519;53.230;10.390;2023-06-14T04:16:19;101585.81;;;15.30;66.50
76627;BME280;65519;53.230;10.390;2023-06-14T04:18:44;101588.53;;;15.46;65.90
76627;BME280;65519;53.230;10.390;2023-06-14T04:21:12;101592.06;;;15.51;65.60
76627;BME280;65519;53.230;10.390;2023-06-14T04:23:37;101600.34;;;15.56;65.35
76627;BME280;65519;53.230;10.390;2023-06-14T04:26:03;101597.88;;;15.45;65.63
76627;BME280;65519;53.230;10.390;2023-06-14T04:28:29;101597.31;;;15.38;66.24
76627;BME280;65519;53.230;10.390;2023-06-14T04:30:57;101598.94;;;15.59;65.32
76627;BME280;65519;53.230;10.390;2023-06-14T04:33:28;101606.06;;;15.60;65.45
76627;BME280;65519;53.230;10.390;2023-06-14T04:35:53;101605.53;;;15.58;65.82
76627;BME280;65519;53.230;10.390;2023-06-14T04:38:22;101607.72;;;15.51;66.18
76627;BME280;65519;53.230;10.390;2023-06-14T04:40:52;101606.91;;;15.50;66.25
76627;BME280;65519;53.230;10.390;2023-06-14T04:43:19;101606.34;;;15.48;66.38
76627;BME280;65519;53.230;10.390;2023-06-14T04:45:53;101610.50;;;15.46;66.43
76627;BME280;65519;53.230;10.390;2023-06-14T04:48:21;101616.56;;;15.43;66.95
76627;BME280;65519;53.230;10.390;2023-06-14T04:50:48;101615.44;;;15.39;67.08
76627;BME280;65519;53.230;10.390;2023-06-14T04:53:19;101611.56;;;15.50;66.47
76627;BME280;65519;53.230;10.390;2023-06-14T04:55:49;101614.88;;;15.62;66.26
76627;BME280;65519;53.230;10.390;2023-06-14T04:58:16;101614.88;;;15.67;65.80
76627;BME280;65519;53.230;10.390;2023-06-14T05:00:42;101613.75;;;15.68;65.74
76627;BME280;65519;53.230;10.390;2023-06-14T05:03:09;101619.25;;;15.68;65.54
76627;BME280;65519;53.230;10.390;2023-06-14T05:05:34;101612.34;;;15.70;65.24
76627;BME280;65519;53.230;10.390;2023-06-14T05:08:00;101617.84;;;15.70;65.70
76627;BME280;65519;53.230;10.390;2023-06-14T05:10:26;101621.34;;;15.91;64.89
76627;BME280;65519;53.230;10.390;2023-06-14T05:12:52;101621.88;;;15.98;64.73
76627;BME280;65519;53.230;10.390;2023-06-14T05:15:19;101623.53;;;15.94;64.83
76627;BME280;65519;53.230;10.390;2023-06-14T05:17:45;101627.66;;;15.97;64.70
76627;BME280;65519;53.230;10.390;2023-06-14T05:20:18;101626.78;;;16.06;64.21
76627;BME280;65519;53.230;10.390;2023-06-14T05:22:43;101624.50;;;16.19;63.51
76627;BME280;65519;53.230;10.390;2023-06-14T05:25:09;101622.88;;;16.13;63.70
76627;BME280;65519;53.230;10.390;2023-06-14T05:27:34;101617.44;;;16.02;63.86
76627;BME280;65519;53.230;10.390;2023-06-14T05:30:02;101620.66;;;16.20;63.31
76627;BME280;65519;53.230;10.390;2023-06-14T05:32:29;101620.06;;;16.23;63.08
76627;BME280;65519;53.230;10.390;2023-06-14T05:34:55;101620.06;;;16.28;63.07
76627;BME280;65519;53.230;10.390;2023-06-14T05:37:20;101615.03;;;16.40;62.71
76627;BME280;65519;53.230;10.390;2023-06-14T05:39:46;101615.81;;;16.46;61.94
76627;BME280;65519;53.230;10.390;2023-06-14T05:42:11;101623.81;;;16.42;62.63
76627;BME280;65519;53.230;10.390;2023-06-14T05:44:37;101627.91;;;16.50;62.14
76627;BME280;65519;53.230;10.390;2023-06-14T05:47:05;101622.88;;;16.57;61.41
76627;BME280;65519;53.230;10.390;2023-06-14T05:49:31;101627.50;;;16.71;61.32
76627;BME280;65519;53.230;10.390;2023-06-14T05:51:56;101632.56;;;16.88;60.61
76627;BME280;65519;53.230;10.390;2023-06-14T05:54:21;101629.72;;;16.98;59.69
76627;BME280;65519;53.230;10.390;2023-06-14T05:56:47;101628.88;;;17.03;59.95
76627;BME280;65519;53.230;10.390;2023-06-14T05:59:12;101644.31;;;16.99;59.92
76627;BME280;65519;53.230;10.390;2023-06-14T06:01:38;101641.53;;;17.04;59.48
76627;BME280;65519;53.230;10.390;2023-06-14T06:04:05;101645.78;;;17.20;58.41
76627;BME280;65519;53.230;10.390;2023-06-14T06:06:31;101648.53;;;17.20;58.42
76627;BME280;65519;53.230;10.390;2023-06-14T06:08:57;101636.91;;;17.28;58.23
76627;BME280;65519;53.230;10.390;2023-06-14T06:11:23;101636.31;;;17.31;58.76
76627;BME280;65519;53.230;10.390;2023-06-14T06:13:49;101638.91;;;17.46;58.34
76627;BME280;65519;53.230;10.390;2023-06-14T06:16:15;101640.66;;;17.37;58.05
76627;BME280;65519;53.230;10.390;2023-06-14T06:18:41;101642.03;;;17.40;57.49
76627;BME280;65519;53.230;10.390;2023-06-14T06:21:06;101653.47;;;17.52;57.08
76627;BME280;65519;53.230;10.390;2023-06-14T06:23:32;101643.03;;;17.49;56.90
76627;BME280;65519;53.230;10.390;2023-06-14T06:25:57;101647.59;;;17.59;56.75
76627;BME280;65519;53.230;10.390;2023-06-14T06:28:23;101646.97;;;17.67;56.98
76627;BME280;65519;53.230;10.390;2023-06-14T06:30:48;101650.00;;;17.70;56.71
76627;BME280;65519;53.230;10.390;2023-06-14T06:33:14;101654.03;;;17.78;55.73
76627;BME280;65519;53.230;10.390;2023-06-14T06:35:42;101643.53;;;17.80;55.48
76627;BME280;65519;53.230;10.390;2023-06-14T06:38:08;101658.47;;;17.98;55.29
76627;BME280;65519;53.230;10.390;2023-06-14T06:40:35;101661.50;;;17.96;55.67
76627;BME280;65519;53.230;10.390;2023-06-14T06:43:02;101655.50;;;17.94;55.32
76627;BME280;65519;53.230;10.390;2023-06-14T06:45:28;101651.16;;;17.88;56.34
76627;BME280;65519;53.230;10.390;2023-06-14T06:47:54;101658.13;;;18.04;55.42
76627;BME280;65519;53.230;10.390;2023-06-14T06:50:20;101662.81;;;18.04;55.98
76627;BME280;65519;53.230;10.390;2023-06-14T06:52:48;101669.63;;;18.11;56.16
76627;BME280;65519;53.230;10.390;2023-06-14T06:55:14;101676.59;;;18.28;55.35
76627;BME280;65519;53.230;10.390;2023-06-14T06:57:39;101669.78;;;18.39;54.18
76627;BME280;65519;53.230;10.390;2023-06-14T07:00:06;101670.25;;;18.46;54.76
76627;BME280;65519;53.230;10.390;2023-06-14T07:02:36;101671.06;;;18.46;53.84
76627;BME280;65519;53.230;10.390;2023-06-14T07:05:02;101672.31;;;18.59;53.64
76627;BME280;65519;53.230;10.390;2023-06-14T07:07:27;101674.78;;;18.93;52.87
76627;BME280;65519;53.230;10.390;2023-06-14T07:09:52;101674.31;;;19.05;51.58
76627;BME280;65519;53.230;10.390;2023-06-14T07:12:18;101676.41;;;19.13;51.01
76627;BME280;65519;53.230;10.390;2023-06-14T07:14:43;101674.66;;;19.49;49.88
76627;BME280;65519;53.230;10.390;2023-06-14T07:17:09;101661.09;;;19.34;49.88
76627;BME280;65519;53.230;10.390;2023-06-14T07:19:37;101668.34;;;19.30;49.90
76627;BME280;65519;53.230;10.390;2023-06-14T07:22:02;101677.69;;;19.34;49.87
76627;BME280;65519;53.230;10.390;2023-06-14T07:24:28;101668.91;;;19.46;49.02
76627;BME280;65519;53.230;10.390;2023-06-14T07:26:53;101657.28;;;19.62;48.57
76627;BME280;65519;53.230;10.390;2023-06-14T07:29:20;101656.56;;;19.71;47.39
76627;BME280;65519;53.230;10.390;2023-06-14T07:31:46;101666.72;;;19.89;47.07
76627;BME280;65519;53.230;10.390;2023-06-14T07:34:12;101659.72;;;20.05;46.78
76627;BME280;65519;53.230;10.390;2023-06-14T07:36:38;101658.50;;;20.11;46.27
76627;BME280;65519;53.230;10.390;2023-06-14T07:39:04;101657.94;;;20.23;45.66
76627;BME280;65519;53.230;10.390;2023-06-14T07:41:31;101664.63;;;20.35;46.07
76627;BME280;65519;53.230;10.390;2023-06-14T07:43:56;101663.31;;;20.19;45.70
76627;BME280;65519;53.230;10.390;2023-06-14T07:46:22;101671.59;;;20.19;46.50
76627;BME280;65519;53.230;10.390;2023-06-14T07:48:47;101669.03;;;20.23;46.40
76627;BME280;65519;53.230;10.390;2023-06-14T07:51:13;101662.94;;;20.34;46.34
76627;BME280;65519;53.230;10.390;2023-06-14T07:53:39;101671.19;;;20.39;46.33
76627;BME280;65519;53.230;10.390;2023-06-14T07:56:06;101666.16;;;20.42;46.02
76627;BME280;65519;53.230;10.390;2023-06-14T07:58:31;101667.06;;;20.23;46.59
76627;BME280;65519;53.230;10.390;2023-06-14T08:00:57;101665.34;;;20.41;47.03
76627;BME280;65519;53.230;10.390;2023-06-14T08:03:22;101668.09;;;20.55;46.22
76627;BME280;65519;53.230;10.390;2023-06-14T08:05:48;101667.94;;;20.60;45.47
76627;BME280;65519;53.230;10.390;2023-06-14T08:08:14;101675.63;;;20.63;45.31
76627;BME280;65519;53.230;10.390;2023-06-14T08:10:39;101667.50;;;20.66;45.28
76627;BME280;65519;53.230;10.390;2023-06-14T08:13:05;101669.66;;;20.69;45.94
76627;BME280;65519;53.230;10.390;2023-06-14T08:15:31;101664.19;;;20.78;45.56
76627;BME280;65519;53.230;10.390;2023-06-14T08:17:56;101660.97;;;20.85;45.59
76627;BME280;65519;53.230;10.390;2023-06-14T08:20:23;101661.97;;;20.89;45.67
76627;BME280;65519;53.230;10.390;2023-06-14T08:22:49;101662.88;;;20.98;45.40
76627;BME280;65519;53.230;10.390;2023-06-14T08:25:15;101663.03;;;21.01;45.21
76627;BME280;65519;53.230;10.390;2023-06-14T08:27:40;101659.59;;;20.96;44.78
76627;BME280;65519;53.230;10.390;2023-06-14T08:30:07;101662.13;;;21.06;45.11
76627;BME280;65519;53.230;10.390;2023-06-14T08:32:33;101664.31;;;21.18;44.84
76627;BME280;65519;53.230;10.390;2023-06-14T08:34:58;101665.53;;;21.25;44.73
76627;BME280;65519;53.230;10.390;2023-06-14T08:37:24;101668.28;;;21.25;43.97
76627;BME280;65519;53.230;10.390;2023-06-14T08:39:50;101668.34;;;21.34;43.60
76627;BME280;65519;53.230;10.390;2023-06-14T08:42:16;101657.44;;;21.37;43.85
76627;BME280;65519;53.230;10.390;2023-06-14T08:44:44;101661.25;;;21.50;43.78
76627;BME280;65519;53.230;10.390;2023-06-14T08:47:10;101660.59;;;21.53;43.10
76627;BME280;65519;53.230;10.390;2023-06-14T08:49:36;101666.16;;;21.53;43.20
76627;BME280;65519;53.230;10.390;2023-06-14T08:52:05;101660.44;;;21.49;43.10
76627;BME280;65519;53.230;10.390;2023-06-14T08:54:33;101664.69;;;21.56;42.70
76627;BME280;65519;53.230;10.390;2023-06-14T08:57:03;101665.38;;;21.61;43.55
76627;BME280;65519;53.230;10.390;2023-06-14T08:59:32;101676.06;;;21.76;43.33
76627;BME280;65519;53.230;10.390;2023-06-14T09:02:05;101668.72;;;21.80;42.14
76627;BME280;65519;53.230;10.390;2023-06-14T09:04:31;101669.06;;;21.88;42.93
76627;BME280;65519;53.230;10.390;2023-06-14T09:06:57;101671.03;;;21.96;43.47
76627;BME280;65519;53.230;10.390;2023-06-14T09:09:24;101664.19;;;21.84;43.41
76627;BME280;65519;53.230;10.390;2023-06-14T09:11:51;101664.66;;;21.86;43.23
76627;BME280;65519;53.230;10.390;2023-06-14T09:14:21;101670.31;;;22.04;43.56
76627;BME280;65519;53.230;10.390;2023-06-14T09:16:46;101666.91;;;22.15;42.99
76627;BME280;65519;53.230;10.390;2023-06-14T09:19:30;101665.91;;;22.11;43.32
76627;BME280;65519;53.230;10.390;2023-06-14T09:21:55;101665.28;;;22.23;43.19
76627;BME280;65519;53.230;10.390;2023-06-14T09:24:23;101664.81;;;22.38;42.78
76627;BME280;65519;53.230;10.390;2023-06-14T09:26:51;101651.72;;;22.30;41.46
76627;BME280;65519;53.230;10.390;2023-06-14T09:29:17;101671.34;;;22.42;41.41
76627;BME280;65519;53.230;10.390;2023-06-14T09:31:45;101665.94;;;22.29;40.57
76627;BME280;65519;53.230;10.390;2023-06-14T09:34:11;101664.31;;;22.28;41.71
76627;BME280;65519;53.230;10.390;2023-06-14T09:36:39;101661.38;;;22.41;42.02
76627;BME280;65519;53.230;10.390;2023-06-14T09:39:05;101666.63;;;22.51;40.00
76627;BME280;65519;53.230;10.390;2023-06-14T09:41:39;101661.72;;;22.48;40.43
76627;BME280;65519;53.230;10.390;2023-06-14T09:44:06;101662.41;;;22.71;41.54
76627;BME280;65519;53.230;10.390;2023-06-14T09:46:33;101664.66;;;22.95;39.40
76627;BME280;65519;53.230;10.390;2023-06-14T09:48:59;101664.66;;;23.12;39.69
76627;BME280;65519;53.230;10.390;2023-06-14T09:51:26;101667.44;;;23.12;39.49
76627;BME280;65519;53.230;10.390;2023-06-14T09:53:53;101669.72;;;23.19;39.04
76627;BME280;65519;53.230;10.390;2023-06-14T09:56:41;101663.00;;;23.20;38.66
76627;BME280;65519;53.230;10.390;2023-06-14T09:59:09;101652.88;;;23.07;39.07
76627;BME280;65519;53.230;10.390;2023-06-14T10:01:36;101660.75;;;22.96;39.15
76627;BME280;65519;53.230;10.390;2023-06-14T10:04:07;101650.78;;;22.95;38.96
76627;BME280;65519;53.230;10.390;2023-06-14T10:06:37;101646.69;;;23.01;38.50
76627;BME280;65519;53.230;10.390;2023-06-14T10:09:04;101644.47;;;23.33;38.69
76627;BME280;65519;53.230;10.390;2023-06-14T10:11:34;101658.66;;;23.48;39.62
76627;BME280;65519;53.230;10.390;2023-06-14T10:14:02;101657.81;;;23.65;37.89
76627;BME280;65519;53.230;10.390;2023-06-14T10:22:00;101653.31;;;23.26;37.05
76627;BME280;65519;53.230;10.390;2023-06-14T10:24:47;101653.09;;;23.48;37.12
76627;BME280;65519;53.230;10.390;2023-06-14T10:27:13;101630.16;;;23.60;36.72
76627;BME280;65519;53.230;10.390;2023-06-14T10:32:27;101636.38;;;23.95;36.75
76627;BME280;65519;53.230;10.390;2023-06-14T10:34:57;101632.94;;;24.19;36.32
76627;BME280;65519;53.230;10.390;2023-06-14T10:37:23;101626.53;;;23.97;35.62
76627;BME280;65519;53.230;10.390;2023-06-14T10:39:50;101627.97;;;23.74;36.01
76627;BME280;65519;53.230;10.390;2023-06-14T10:42:15;101623.38;;;23.78;35.86
76627;BME280;65519;53.230;10.390;2023-06-14T10:47:13;101629.09;;;24.02;35.18
76627;BME280;65519;53.230;10.390;2023-06-14T10:49:53;101624.06;;;24.25;35.59
76627;BME280;65519;53.230;10.390;2023-06-14T10:52:26;101626.00;;;24.33;34.69
76627;BME280;65519;53.230;10.390;2023-06-14T10:55:06;101612.06;;;24.33;33.84
76627;BME280;65519;53.230;10.390;2023-06-14T10:57:40;101616.09;;;24.15;33.69
76627;BME280;65519;53.230;10.390;2023-06-14T11:00:07;101620.97;;;23.97;34.17
76627;BME280;65519;53.230;10.390;2023-06-14T11:05:30;101612.84;;;23.84;34.22
76627;BME280;65519;53.230;10.390;2023-06-14T11:10:39;101602.59;;;24.47;34.05
76627;BME280;65519;53.230;10.390;2023-06-14T11:13:06;101592.31;;;24.59;33.18
76627;BME280;65519;53.230;10.390;2023-06-14T11:15:33;101597.63;;;24.52;33.40
76627;BME280;65519;53.230;10.390;2023-06-14T11:18:06;101599.22;;;24.41;33.57
76627;BME280;65519;53.230;10.390;2023-06-14T11:20:34;101592.78;;;24.20;34.15
76627;BME280;65519;53.230;10.390;2023-06-14T11:23:01;101594.34;;;24.09;34.29
76627;BME280;65519;53.230;10.390;2023-06-14T11:25:26;101596.56;;;23.94;34.84
76627;BME280;65519;53.230;10.390;2023-06-14T11:27:54;101594.16;;;23.84;33.82
76627;BME280;65519;53.230;10.390;2023-06-14T11:30:19;101595.66;;;23.82;34.88
76627;BME280;65519;53.230;10.390;2023-06-14T11:32:49;101596.28;;;23.87;34.86
76627;BME280;65519;53.230;10.390;2023-06-14T11:35:16;101587.00;;;24.04;34.66
76627;BME280;65519;53.230;10.390;2023-06-14T11:37:42;101591.25;;;24.31;33.69
76627;BME280;65519;53.230;10.390;2023-06-14T11:40:09;101579.81;;;24.65;32.48
76627;BME280;65519;53.230;10.390;2023-06-14T11:42:37;101580.09;;;24.85;32.58
76627;BME280;65519;53.230;10.390;2023-06-14T11:45:03;101581.22;;;25.04;31.72
76627;BME280;65519;53.230;10.390;2023-06-14T11:47:34;101576.25;;;25.22;32.14
76627;BME280;65519;53.230;10.390;2023-06-14T11:50:01;101567.44;;;25.44;31.28
76627;BME280;65519;53.230;10.390;2023-06-14T11:52:27;101571.03;;;25.45;32.25
76627;BME280;65519;53.230;10.390;2023-06-14T11:54:53;101563.47;;;25.58;32.38
76627;BME280;65519;53.230;10.390;2023-06-14T11:57:19;101570.91;;;25.54;31.16
76627;BME280;65519;53.230;10.390;2023-06-14T11:59:45;101576.38;;;25.26;31.37
76627;BME280;65519;53.230;10.390;2023-06-14T12:02:15;101570.84;;;24.93;32.10
76627;BME280;65519;53.230;10.390;2023-06-14T12:04:41;101565.88;;;24.65;32.20
76627;BME280;65519;53.230;10.390;2023-06-14T12:07:14;101558.69;;;24.77;32.91
76627;BME280;65519;53.230;10.390;2023-06-14T12:12:28;101549.47;;;24.64;32.72
76627;BME280;65519;53.230;10.390;2023-06-14T12:14:57;101556.72;;;24.44;32.45
76627;BME280;65519;53.230;10.390;2023-06-14T12:17:23;101549.03;;;24.20;32.64
76627;BME280;65519;53.230;10.390;2023-06-14T12:19:49;101557.19;;;24.25;32.48
76627;BME280;65519;53.230;10.390;2023-06-14T12:22:16;101556.66;;;24.32;32.69
76627;BME280;65519;53.230;10.390;2023-06-14T12:24:45;101551.91;;;24.32;32.17
76627;BME280;65519;53.230;10.390;2023-06-14T12:27:12;101558.56;;;24.40;32.22
76627;BME280;65519;53.230;10.390;2023-06-14T12:29:41;101555.13;;;24.55;32.43
76627;BME280;65519;53.230;10.390;2023-06-14T12:32:09;101550.78;;;24.79;32.66
76627;BME280;65519;53.230;10.390;2023-06-14T12:34:35;101551.09;;;25.10;32.01
76627;BME280;65519;53.230;10.390;2023-06-14T12:37:00;101542.41;;;25.36;31.23
76627;BME280;65519;53.230;10.390;2023-06-14T12:39:26;101546.03;;;25.49;30.75
76627;BME280;65519;53.230;10.390;2023-06-14T12:41:52;101547.41;;;25.42;30.58
76627;BME280;65519;53.230;10.390;2023-06-14T12:44:17;101553.84;;;25.31;30.43
76627;BME280;65519;53.230;10.390;2023-06-14T12:46:42;101550.09;;;25.27;30.76
76627;BME280;65519;53.230;10.390;2023-06-14T12:49:10;101539.16;;;25.22;30.95
76627;BME280;65519;53.230;10.390;2023-06-14T12:51:36;101545.53;;;24.98;30.85
76627;BME280;65519;53.230;10.390;2023-06-14T12:54:02;101551.31;;;24.93;30.79
76627;BME280;65519;53.230;10.390;2023-06-14T12:56:28;101542.63;;;24.94;31.04
76627;BME280;65519;53.230;10.390;2023-06-14T12:58:53;101546.41;;;24.90;30.58
76627;BME280;65519;53.230;10.390;2023-06-14T13:01:19;101543.56;;;24.78;30.50
76627;BME280;65519;53.230;10.390;2023-06-14T13:03:46;101537.06;;;24.73;31.25